Time;durP1;ratioP1;P1;durP2;ratioP2;P2;SDS_P1;SDS_P2;PMS_P1;PMS_P2;Temp;Humidity;BMP_temperature;BMP_pressure;BME280_temperature;BME280_humidity;BME280_pressure;Samples;Min_cycle;Max_cycle;Signal;HPM_P1;HPM_P2
2023/02/11 00:01:05;;;;;;;75.25;40.90;;;;;;;-2.61;100.00;102158.94;5073566;28;20069;-78
2023/02/11 00:03:31;;;;;;;84.10;42.08;;;;;;;-3.33;100.00;102016.09;5074732;28;20020;-78
2023/02/11 00:05:58;;;;;;;80.10;41.42;;;;;;;-3.21;100.00;102141.97;5074510;28;20047;-79
2023/02/11 00:08:26;;;;;;;79.32;42.47;;;;;;;-3.06;100.00;102072.44;5073751;28;20020;-79
2023/02/11 00:10:53;;;;;;;83.72;43.03;;;;;;;-2.60;100.00;102130.78;5071805;28;20032;-79
2023/02/11 00:13:19;;;;;;;85.78;44.45;;;;;;;-3.09;100.00;102070.63;5074611;28;20083;-79
2023/02/11 00:15:44;;;;;;;84.30;44.50;;;;;;;-2.97;100.00;102137.69;5074953;28;20407;-80
2023/02/11 00:18:10;;;;;;;90.50;48.88;;;;;;;-3.22;100.00;102074.75;5074477;28;20025;-78
2023/02/11 00:20:38;;;;;;;90.95;46.67;;;;;;;-2.68;100.00;102126.22;5072558;28;20040;-79
2023/02/11 00:23:03;;;;;;;83.47;45.92;;;;;;;-2.89;100.00;102122.44;5073245;28;20036;-79
2023/02/11 00:25:29;;;;;;;88.28;49.55;;;;;;;-2.90;100.00;102099.94;5073994;28;20042;-79
2023/02/11 00:27:54;;;;;;;82.28;47.60;;;;;;;-3.07;100.00;102108.03;5074122;28;20123;-78
2023/02/11 00:30:19;;;;;;;86.50;48.08;;;;;;;-3.09;100.00;102084.69;5073789;28;20767;-79
2023/02/11 00:32:45;;;;;;;79.95;46.90;;;;;;;-3.39;100.00;102011.63;5073217;28;20033;-79
2023/02/11 00:35:11;;;;;;;87.20;46.70;;;;;;;-3.05;100.00;102096.56;5073134;28;20039;-79
2023/02/11 00:37:36;;;;;;;76.13;44.50;;;;;;;-3.65;100.00;102000.09;5072287;28;20081;-79
2023/02/11 00:40:05;;;;;;;82.60;47.45;;;;;;;-3.26;100.00;102088.63;5073057;28;20040;-79
2023/02/11 00:42:31;;;;;;;79.40;45.58;;;;;;;-3.29;100.00;102076.03;5072486;28;20032;-79
2023/02/11 00:44:56;;;;;;;86.82;47.22;;;;;;;-3.46;100.00;101994.59;5073686;28;20032;-77
2023/02/11 00:47:22;;;;;;;92.05;49.13;;;;;;;-2.72;100.00;102069.56;5073782;28;20024;-79
2023/02/11 00:49:47;;;;;;;89.00;49.28;;;;;;;-3.17;100.00;102073.44;5073594;28;20378;-77
2023/02/11 00:52:13;;;;;;;97.20;53.08;;;;;;;-3.60;100.00;102006.19;5073342;28;20043;-79
2023/02/11 00:54:39;;;;;;;91.43;50.13;;;;;;;-3.20;100.00;102059.19;5072347;28;20115;-79
2023/02/11 00:57:04;;;;;;;86.60;46.55;;;;;;;-3.82;100.00;102020.53;5073722;28;20085;-80
2023/02/11 00:59:30;;;;;;;90.45;47.22;;;;;;;-3.69;100.00;102069.38;5072278;28;20055;-79
2023/02/11 01:01:55;;;;;;;97.78;48.70;;;;;;;-3.95;100.00;102054.44;5072544;28;20405;-79
2023/02/11 01:04:20;;;;;;;108.07;50.38;;;;;;;-4.03;100.00;101959.59;5072159;28;20036;-79
2023/02/11 01:06:46;;;;;;;126.95;60.13;;;;;;;-4.62;100.00;101891.34;5072932;28;20029;-79
2023/02/11 01:09:12;;;;;;;125.45;59.17;;;;;;;-3.76;100.00;102044.88;5073133;28;20070;-78
2023/02/11 01:11:37;;;;;;;117.30;55.55;;;;;;;-3.51;100.00;102035.72;5072190;28;20067;-78
2023/02/11 01:14:02;;;;;;;103.07;51.40;;;;;;;-3.79;100.00;101938.78;5072900;28;20028;-79
2023/02/11 01:16:28;;;;;;;103.55;51.50;;;;;;;-4.30;100.00;101949.56;5086900;28;20043;-79
2023/02/11 01:18:53;;;;;;;88.80;44.92;;;;;;;-4.30;100.00;101940.53;5092349;28;20024;-78
2023/02/11 01:21:19;;;;;;;109.80;52.55;;;;;;;-3.57;100.00;102023.78;5088102;28;20043;-77
2023/02/11 01:23:44;;;;;;;98.20;48.17;;;;;;;-3.41;100.00;102002.34;5072277;28;20167;-79
2023/02/11 01:26:10;;;;;;;107.47;51.20;;;;;;;-3.53;100.00;101999.97;5071461;28;20031;-79
2023/02/11 01:28:35;;;;;;;86.03;43.17;;;;;;;-4.16;100.00;101914.91;5072835;28;20473;-77
2023/02/11 01:31:02;;;;;;;76.10;36.28;;;;;;;-4.35;100.00;101914.53;5072768;28;20036;-78
2023/02/11 01:33:28;;;;;;;70.00;35.13;;;;;;;-4.52;100.00;101836.59;5072004;28;20483;-79
2023/02/11 01:35:55;;;;;;;68.57;33.17;;;;;;;-4.04;100.00;101981.88;5071781;28;20105;-78
2023/02/11 01:38:22;;;;;;;64.50;33.75;;;;;;;-4.02;100.00;101967.94;5071877;28;20059;-76
2023/02/11 01:40:57;;;;;;;77.03;38.35;;;;;;;-3.89;100.00;101945.56;5073069;28;20086;-78
2023/02/11 01:43:24;;;;;;;73.80;40.92;;;;;;;-3.89;100.00;101951.38;5071524;28;20651;-76
2023/02/11 01:46:12;;;;;;;92.07;47.22;;;;;;;-3.91;100.00;101947.94;5072816;28;20042;-77
2023/02/11 01:48:42;;;;;;;92.85;54.28;;;;;;;-4.00;100.00;101934.13;5059498;28;20037;-78
2023/02/11 01:51:22;;;;;;;100.15;59.05;;;;;;;-3.74;100.00;101934.94;5071670;28;20055;-77
2023/02/11 01:59:26;;;;;;;97.75;56.80;;;;;;;-4.45;100.00;101810.53;5072500;28;20149;-77
2023/02/11 02:01:57;;;;;;;91.60;54.65;;;;;;;-3.66;100.00;101881.59;5071173;28;20028;-77
2023/02/11 02:04:30;;;;;;;99.88;57.63;;;;;;;-3.87;100.00;101864.56;5072507;28;20043;-76
2023/02/11 02:07:02;;;;;;;89.70;53.42;;;;;;;-3.73;100.00;101852.19;5071220;28;20040;-77
2023/02/11 02:09:32;;;;;;;94.15;53.25;;;;;;;-3.80;100.00;101856.69;5072088;28;20036;-77
2023/02/11 02:11:58;;;;;;;82.43;47.10;;;;;;;-3.55;100.00;101845.84;5070741;28;20472;-77
2023/02/11 02:14:25;;;;;;;79.65;48.03;;;;;;;-3.89;100.00;101852.06;5072256;28;20033;-77
2023/02/11 02:16:50;;;;;;;81.72;47.25;;;;;;;-3.64;100.00;101847.75;5072355;28;20032;-77
2023/02/11 02:19:22;;;;;;;81.80;46.90;;;;;;;-4.21;100.00;101834.34;5071193;28;20102;-77
2023/02/11 02:22:15;;;;;;;75.15;42.38;;;;;;;-4.49;100.00;101763.97;5072511;28;20474;-78
2023/02/11 02:25:11;;;;;;;68.57;41.78;;;;;;;-3.61;100.00;101828.09;5041146;28;20059;-77
2023/02/11 02:27:40;;;;;;;66.75;39.33;;;;;;;-3.62;100.00;101826.34;5071133;28;20064;-77
2023/02/11 02:30:26;;;;;;;63.75;37.38;;;;;;;-4.38;100.00;101831.63;5070915;28;20044;-76
2023/02/11 02:33:33;;;;;;;58.13;32.42;;;;;;;-3.98;100.00;101830.78;5087337;28;20435;-78
2023/02/11 02:36:15;;;;;;;50.92;27.42;;;;;;;-4.44;100.00;101750.22;5052858;28;20171;-77
2023/02/11 02:38:50;;;;;;;44.10;23.90;;;;;;;-4.04;100.00;101825.44;5070756;28;20051;-78
2023/02/11 02:41:19;;;;;;;38.60;23.40;;;;;;;-4.24;100.00;101739.00;5070669;28;20064;-79
2023/02/11 02:43:48;;;;;;;36.40;21.33;;;;;;;-4.34;100.00;101744.19;5070681;28;20036;-78
2023/02/11 02:46:27;;;;;;;38.78;20.33;;;;;;;-3.34;100.00;101835.38;5071993;28;20059;-78
2023/02/11 02:48:55;;;;;;;61.22;32.03;;;;;;;-4.15;100.00;101837.22;5072090;28;20465;-79
2023/02/11 02:51:42;;;;;;;66.55;36.00;;;;;;;-4.20;100.00;101830.25;5070967;28;20123;-79
2023/02/11 02:54:40;;;;;;;71.65;34.15;;;;;;;-4.70;100.00;101830.50;5071697;28;20029;-78
2023/02/11 02:57:29;;;;;;;61.30;31.67;;;;;;;-5.14;100.00;101835.84;5027123;28;20078;-78
2023/02/11 03:00:03;;;;;;;64.25;32.20;;;;;;;-4.64;100.00;101870.56;5070558;28;20051;-78
2023/02/11 03:03:04;;;;;;;49.65;22.27;;;;;;;-5.14;100.00;101873.03;5071624;28;20120;-77
2023/02/11 03:05:35;;;;;;;30.92;17.17;;;;;;;-5.25;100.00;101887.22;5073932;28;20032;-77
2023/02/11 03:08:16;;;;;;;31.85;15.65;;;;;;;-5.18;100.00;101873.59;5076264;28;20035;-80
2023/02/11 03:10:45;;;;;;;30.98;14.48;;;;;;;-5.09;100.00;101881.63;5091894;28;20047;-78
2023/02/11 03:13:13;;;;;;;29.17;15.82;;;;;;;-5.36;100.00;101901.34;5091405;28;20106;-80
2023/02/11 03:15:42;;;;;;;35.38;18.38;;;;;;;-5.67;100.00;101921.50;5092172;28;20032;-76
2023/02/11 03:18:12;;;;;;;44.97;20.98;;;;;;;-5.32;100.00;102002.38;5091567;28;20039;-77
2023/02/11 03:20:40;;;;;;;27.48;15.20;;;;;;;-5.60;100.00;102006.19;5090444;28;20096;-76
2023/02/11 03:23:28;;;;;;;27.90;14.30;;;;;;;-6.79;100.00;101885.56;5072650;28;20032;-77
2023/02/11 03:26:13;;;;;;;26.08;13.93;;;;;;;-5.40;100.00;102059.59;5071275;28;20086;-76
2023/02/11 03:29:02;;;;;;;24.98;13.15;;;;;;;-5.35;100.00;102051.72;5070996;28;20024;-76
2023/02/11 03:31:53;;;;;;;26.27;13.52;;;;;;;-5.43;100.00;102050.31;5033259;28;20040;-74
2023/02/11 03:34:51;;;;;;;27.23;15.15;;;;;;;-5.58;100.00;102054.22;5073608;28;20115;-77
2023/02/11 03:37:29;;;;;;;31.75;19.38;;;;;;;-5.28;100.00;102065.38;5066306;28;20043;-75
2023/02/11 03:40:10;;;;;;;29.65;17.38;;;;;;;-5.99;100.00;102010.91;5073894;28;20047;-76
2023/02/11 03:42:42;;;;;;;26.10;14.75;;;;;;;-6.48;100.00;101993.31;5075236;28;20064;-77
2023/02/11 03:45:11;;;;;;;26.83;14.65;;;;;;;-6.39;100.00;102003.84;5073765;28;20037;-75
2023/02/11 03:47:40;;;;;;;28.38;15.02;;;;;;;-5.98;100.00;102100.84;5073000;28;20131;-75
2023/02/11 03:50:10;;;;;;;30.17;16.63;;;;;;;-5.32;100.00;102133.69;5074322;28;20052;-74
2023/02/11 03:52:37;;;;;;;30.33;16.40;;;;;;;-5.51;100.00;102124.88;5074396;28;20054;-76
2023/02/11 03:55:08;;;;;;;32.08;18.35;;;;;;;-5.99;100.00;102042.19;4724106;28;10000354;-76
2023/02/11 03:57:34;;;;;;;33.75;18.90;;;;;;;-5.43;100.00;102114.72;5091850;28;20039;-76
2023/02/11 04:00:00;;;;;;;37.78;18.35;;;;;;;-5.81;100.00;102112.78;5092796;28;20047;-75
2023/02/11 04:02:32;;;;;;;29.23;16.83;;;;;;;-5.77;100.00;102120.56;5091332;28;20032;-76
2023/02/11 04:04:57;;;;;;;26.70;15.63;;;;;;;-6.03;100.00;102036.19;5092209;28;20058;-73
2023/02/11 04:07:24;;;;;;;30.48;15.60;;;;;;;-6.30;100.00;101977.31;5091832;28;20064;-75
2023/02/11 04:09:49;;;;;;;32.13;16.40;;;;;;;-5.81;100.00;102081.47;5091994;28;20070;-74
2023/02/11 04:12:15;;;;;;;34.70;18.98;;;;;;;-5.48;100.00;102127.56;5091197;28;20067;-70
2023/02/11 04:14:40;;;;;;;30.60;17.75;;;;;;;-5.36;100.00;102136.72;5092142;28;20532;-74
2023/02/11 04:17:05;;;;;;;40.65;20.63;;;;;;;-5.23;100.00;102158.28;5091413;28;20032;-74
2023/02/11 04:19:31;;;;;;;46.33;25.60;;;;;;;-6.64;100.00;101988.00;5090734;28;20032;-74
2023/02/11 04:21:57;;;;;;;49.35;27.42;;;;;;;-5.84;100.00;102138.22;5084189;28;20027;-73
2023/02/11 04:24:22;;;;;;;54.67;30.15;;;;;;;-5.86;100.00;102072.03;5078808;28;20373;-75
2023/02/11 04:26:48;;;;;;;58.03;32.47;;;;;;;-5.32;100.00;102157.59;5089734;28;20040;-72
2023/02/11 04:29:13;;;;;;;47.40;28.17;;;;;;;-5.70;100.00;102147.47;5091310;28;20059;-73
2023/02/11 04:31:39;;;;;;;43.83;26.83;;;;;;;-5.80;100.00;102065.84;5074827;28;20036;-74
2023/02/11 04:34:04;;;;;;;52.75;30.30;;;;;;;-5.07;100.00;102167.63;5069942;28;20037;-73
2023/02/11 04:36:29;;;;;;;52.13;30.65;;;;;;;-5.51;100.00;102091.06;5069037;28;20123;-72
2023/02/11 04:38:55;;;;;;;76.25;41.25;;;;;;;-5.83;100.00;102070.59;5068598;28;20105;-73
2023/02/11 04:41:20;;;;;;;69.25;34.00;;;;;;;-5.80;100.00;102075.75;5071132;28;20024;-72
2023/02/11 04:43:46;;;;;;;66.22;34.20;;;;;;;-5.37;100.00;102090.38;5080312;28;20494;-74
2023/02/11 04:46:11;;;;;;;64.72;32.60;;;;;;;-4.91;100.00;102089.44;5068430;28;20028;-76
2023/02/11 04:48:37;;;;;;;58.28;32.92;;;;;;;-4.92;100.00;102085.25;5092858;28;20036;-74
2023/02/11 04:51:02;;;;;;;57.53;32.70;;;;;;;-5.88;100.00;102101.59;5091525;28;20055;-76
2023/02/11 04:53:28;;;;;;;54.15;32.05;;;;;;;-5.88;100.00;102078.50;5092910;28;20113;-76
2023/02/11 04:55:53;;;;;;;58.25;33.35;;;;;;;-5.35;100.00;102153.28;5092194;28;20448;-75
2023/02/11 04:58:19;;;;;;;56.58;34.72;;;;;;;-6.53;100.00;101980.63;5092571;28;20032;-74
2023/02/11 05:00:44;;;;;;;60.33;34.55;;;;;;;-5.17;100.00;102150.41;5091688;28;20138;-75
2023/02/11 05:03:10;;;;;;;61.85;34.70;;;;;;;-5.68;100.00;102059.28;5090966;28;20047;-74
2023/02/11 05:05:40;;;;;;;62.53;36.42;;;;;;;-5.45;100.00;102138.53;5092563;28;20482;-76
2023/02/11 05:08:07;;;;;;;59.70;36.10;;;;;;;-6.27;100.00;102029.47;5093035;28;20043;-75
2023/02/11 05:10:33;;;;;;;59.92;33.90;;;;;;;-6.10;100.00;102112.34;5091139;28;20058;-75
2023/02/11 05:12:59;;;;;;;56.92;32.50;;;;;;;-6.43;100.00;102039.88;5092189;28;20085;-76
2023/02/11 05:15:26;;;;;;;46.65;28.98;;;;;;;-5.85;100.00;102138.97;5092781;28;20040;-78
2023/02/11 05:17:52;;;;;;;48.55;27.65;;;;;;;-5.68;100.00;102130.22;5090853;28;20122;-76
2023/02/11 05:20:18;;;;;;;45.58;26.63;;;;;;;-5.53;100.00;102122.28;5093136;28;20063;-76
2023/02/11 05:22:43;;;;;;;44.53;25.00;;;;;;;-5.96;100.00;102116.69;5091956;28;20031;-76
2023/02/11 05:25:08;;;;;;;59.35;28.90;;;;;;;-6.13;100.00;102114.56;5091692;28;20031;-79
2023/02/11 05:27:34;;;;;;;59.00;29.67;;;;;;;-6.10;100.00;102109.88;5092518;28;20500;-76
2023/02/11 05:30:00;;;;;;;65.68;32.00;;;;;;;-6.49;100.00;102105.31;5092921;28;20032;-77
2023/02/11 05:32:25;;;;;;;58.45;27.88;;;;;;;-6.02;100.00;102067.59;5092245;28;20092;-78
2023/02/11 05:34:51;;;;;;;67.95;33.08;;;;;;;-6.60;100.00;102027.03;5091594;28;20051;-77
2023/02/11 05:37:16;;;;;;;151.75;69.80;;;;;;;-5.62;100.00;102136.47;5091712;28;20036;-78
2023/02/11 05:39:42;;;;;;;144.18;69.15;;;;;;;-6.15;100.00;102025.41;5092004;28;20172;-76
2023/02/11 05:42:07;;;;;;;102.72;50.75;;;;;;;-5.62;100.00;102131.53;5091626;28;20036;-80
2023/02/11 05:44:32;;;;;;;91.53;48.70;;;;;;;-5.37;100.00;102163.88;5091799;28;20077;-77
2023/02/11 05:46:58;;;;;;;99.25;53.28;;;;;;;-5.30;100.00;102159.44;5093057;28;20032;-78
2023/02/11 05:49:25;;;;;;;84.45;47.78;;;;;;;-5.31;100.00;102154.38;5093225;28;20482;-77
2023/02/11 05:51:51;;;;;;;75.35;42.97;;;;;;;-5.56;100.00;102155.88;5093543;28;20028;-76
2023/02/11 05:54:16;;;;;;;142.13;62.83;;;;;;;-4.67;100.00;102164.63;5090475;28;20032;-75
2023/02/11 05:56:42;;;;;;;140.85;65.50;;;;;;;-2.21;100.00;102086.66;5092589;28;20039;-77
2023/02/11 05:59:07;;;;;;;86.25;47.00;;;;;;;-0.84;100.00;102127.47;5090807;28;20048;-76
2023/02/11 06:01:33;;;;;;;94.82;53.53;;;;;;;-0.13;100.00;102149.47;5091453;28;20391;-77
2023/02/11 06:03:58;;;;;;;77.78;48.60;;;;;;;-0.76;100.00;102079.66;5092914;28;20551;-79
2023/02/11 06:06:24;;;;;;;78.28;46.67;;;;;;;0.44;100.00;102038.91;5092244;28;20040;-77
2023/02/11 06:08:49;;;;;;;62.60;38.33;;;;;;;0.60;100.00;101942.09;5091138;28;20027;-76
2023/02/11 06:11:15;;;;;;;53.30;33.80;;;;;;;-0.41;100.00;101767.56;5090930;28;20049;-76
2023/02/11 06:13:40;;;;;;;45.47;29.60;;;;;;;0.28;100.00;101708.94;5092622;28;20121;-77
2023/02/11 06:16:06;;;;;;;51.67;29.98;;;;;;;0.56;100.00;101619.19;5091427;28;20371;-78
2023/02/11 06:18:32;;;;;;;64.75;38.65;;;;;;;3.02;100.00;101713.88;5092264;28;20031;-77
2023/02/11 06:20:58;;;;;;;79.00;46.80;;;;;;;-1.35;100.00;101655.09;5091155;28;20020;-77
2023/02/11 06:23:24;;;;;;;70.25;42.80;;;;;;;1.37;100.00;101714.91;5091397;28;20051;-79
2023/02/11 06:25:50;;;;;;;42.85;27.50;;;;;;;0.38;100.00;101640.97;5091944;28;20537;-80
2023/02/11 06:28:15;;;;;;;49.20;29.15;;;;;;;0.91;100.00;101705.63;5092084;28;20101;-80
2023/02/11 06:30:41;;;;;;;52.58;31.17;;;;;;;1.50;100.00;101656.97;5091718;28;20032;-77
2023/02/11 06:33:06;;;;;;;64.70;37.22;;;;;;;2.64;100.00;101649.94;5092633;28;20519;-79
2023/02/11 06:35:34;;;;;;;63.47;39.17;;;;;;;4.84;100.00;101743.16;5092435;28;20039;-79
2023/02/11 06:37:59;;;;;;;69.15;40.35;;;;;;;4.20;100.00;101790.19;5092143;28;20078;-80
2023/02/11 06:40:25;;;;;;;60.80;39.05;;;;;;;5.99;100.00;101798.69;5093490;28;20526;-79
2023/02/11 06:42:50;;;;;;;56.40;34.80;;;;;;;3.59;100.00;101759.09;5091332;28;20020;-81
2023/02/11 06:45:16;;;;;;;51.45;30.00;;;;;;;5.04;100.00;101857.03;5091000;28;20440;-78
2023/02/11 06:47:41;;;;;;;46.65;27.35;;;;;;;4.78;100.00;101788.38;5091079;28;20021;-81
2023/02/11 06:50:09;;;;;;;36.08;23.90;;;;;;;4.16;100.00;101789.25;5090439;28;20043;-80
2023/02/11 06:52:35;;;;;;;35.00;20.88;;;;;;;3.11;100.00;101848.97;5090633;28;20027;-79
2023/02/11 06:55:01;;;;;;;31.90;21.15;;;;;;;0.96;100.00;101846.81;5092098;28;20028;-81
2023/02/11 06:57:26;;;;;;;31.38;21.02;;;;;;;-0.25;100.00;101899.00;5092028;28;20035;-79
2023/02/11 06:59:52;;;;;;;32.30;22.15;;;;;;;-1.26;100.00;101776.84;5090772;28;20043;-78
2023/02/11 07:02:17;;;;;;;35.05;22.67;;;;;;;-1.47;100.00;101808.22;5090835;28;20031;-79
2023/02/11 07:04:43;;;;;;;32.75;21.40;;;;;;;-1.87;100.00;101708.19;5091886;28;20441;-77
2023/02/11 07:07:10;;;;;;;34.58;24.58;;;;;;;-0.56;100.00;101774.38;5095305;28;20486;-77
2023/02/11 07:09:35;;;;;;;42.80;24.83;;;;;;;-1.20;100.00;101677.38;5095039;28;20028;-79
2023/02/11 07:12:01;;;;;;;42.88;26.50;;;;;;;-0.60;100.00;101757.56;5096414;28;20418;-78
2023/02/11 07:14:26;;;;;;;45.67;30.52;;;;;;;0.27;100.00;101718.06;5082786;28;20116;-78
2023/02/11 07:16:54;;;;;;;31.30;19.55;;;;;;;-0.71;100.00;101672.97;5075997;28;20024;-79
2023/02/11 07:19:20;;;;;;;31.83;21.77;;;;;;;0.17;100.00;101717.63;5075762;28;20020;-78
2023/02/11 07:21:47;;;;;;;33.88;21.38;;;;;;;-1.17;100.00;101645.94;5076119;28;20140;-78
2023/02/11 07:24:13;;;;;;;35.50;22.13;;;;;;;-0.61;100.00;101675.94;5075834;28;20481;-78
2023/02/11 07:26:39;;;;;;;28.77;18.73;;;;;;;-0.39;100.00;101645.25;5075796;28;20103;-78
2023/02/11 07:29:04;;;;;;;30.50;19.95;;;;;;;-0.50;100.00;101707.25;5074439;28;20054;-77
2023/02/11 07:31:30;;;;;;;30.08;19.02;;;;;;;0.71;100.00;101687.34;5074088;28;20033;-77
2023/02/11 07:33:58;;;;;;;34.50;20.13;;;;;;;0.78;100.00;101700.16;5075220;28;20032;-77
2023/02/11 07:36:24;;;;;;;27.88;19.77;;;;;;;-0.19;100.00;101617.84;5075744;28;20032;-78
2023/02/11 07:38:50;;;;;;;32.03;20.75;;;;;;;0.37;100.00;101701.78;5074858;28;20035;-77
2023/02/11 07:41:19;;;;;;;30.25;20.85;;;;;;;0.88;100.00;101692.19;5074611;28;20032;-77
2023/02/11 07:43:44;;;;;;;31.50;18.02;;;;;;;0.78;100.00;101669.25;5073683;28;20032;-76
2023/02/11 07:46:16;;;;;;;28.63;18.67;;;;;;;0.81;100.00;101684.41;5074129;28;20383;-77
2023/02/11 07:48:42;;;;;;;28.98;19.02;;;;;;;1.21;100.00;101672.56;5074650;28;20479;-75
2023/02/11 07:51:13;;;;;;;33.70;21.67;;;;;;;1.08;100.00;101695.47;5073946;28;20025;-75
2023/02/11 07:53:38;;;;;;;28.58;18.48;;;;;;;0.75;100.00;101682.50;5074886;28;20035;-75
2023/02/11 07:56:05;;;;;;;30.50;18.85;;;;;;;-0.49;100.00;101681.47;5074546;28;20025;-74
2023/02/11 07:58:31;;;;;;;31.30;18.27;;;;;;;0.23;100.00;101652.84;5074247;28;20048;-75
2023/02/11 08:01:08;;;;;;;29.83;20.13;;;;;;;0.53;100.00;101612.44;5073251;28;20024;-75
2023/02/11 08:03:35;;;;;;;37.72;23.50;;;;;;;0.08;100.00;101625.59;5072960;28;20336;-74
2023/02/11 08:06:12;;;;;;;49.97;29.73;;;;;;;-0.02;100.00;101686.84;5074647;28;20082;-76
2023/02/11 08:08:37;;;;;;;40.28;27.42;;;;;;;-0.17;100.00;101676.22;5073589;28;20036;-75
2023/02/11 08:11:07;;;;;;;29.23;19.40;;;;;;;-0.43;100.00;101689.22;5074758;28;20035;-74
2023/02/11 08:13:33;;;;;;;27.27;18.38;;;;;;;-0.40;100.00;101631.06;5073250;28;20074;-75
2023/02/11 08:15:58;;;;;;;46.92;30.08;;;;;;;-0.01;100.00;101647.72;5074193;28;20078;-76
2023/02/11 08:18:24;;;;;;;37.45;23.60;;;;;;;0.08;100.00;101680.56;5072006;28;20173;-76
2023/02/11 08:20:49;;;;;;;34.22;23.15;;;;;;;0.43;100.00;101640.38;5072324;28;20028;-77
2023/02/11 08:23:14;;;;;;;28.38;18.90;;;;;;;0.55;100.00;101680.88;5074228;28;20498;-76
2023/02/11 08:25:40;;;;;;;34.38;19.45;;;;;;;0.38;100.00;101615.94;5073522;28;20028;-77
2023/02/11 08:28:05;;;;;;;26.05;16.65;;;;;;;-0.06;100.00;101596.72;5073726;28;20562;-77
2023/02/11 08:30:30;;;;;;;30.10;17.95;;;;;;;0.85;100.00;101661.19;5073618;28;20024;-76
2023/02/11 08:32:56;;;;;;;27.15;17.85;;;;;;;1.29;100.00;101675.38;5074455;28;20031;-76
2023/02/11 08:35:21;;;;;;;31.10;19.75;;;;;;;0.45;100.00;101673.81;5072870;28;20028;-76
2023/02/11 08:37:47;;;;;;;38.03;21.50;;;;;;;0.74;100.00;101642.41;5073617;28;20495;-77
2023/02/11 08:40:12;;;;;;;33.13;20.15;;;;;;;1.15;100.00;101664.00;5072377;28;20039;-76
2023/02/11 08:42:37;;;;;;;29.35;18.55;;;;;;;-0.08;100.00;101571.63;5073453;28;20143;-78
2023/02/11 08:45:03;;;;;;;42.40;27.05;;;;;;;1.71;100.00;101654.34;5074043;28;20478;-76
2023/02/11 08:47:30;;;;;;;28.02;17.73;;;;;;;1.62;100.00;101644.00;5071946;28;20094;-76
2023/02/11 08:49:55;;;;;;;26.75;17.60;;;;;;;1.52;100.00;101555.16;5073005;28;20032;-76
2023/02/11 08:52:21;;;;;;;29.98;19.85;;;;;;;1.08;100.00;101620.34;5073787;28;20105;-76
2023/02/11 08:54:46;;;;;;;29.20;17.45;;;;;;;1.74;100.00;101625.22;5072840;28;20039;-76
2023/02/11 08:57:12;;;;;;;28.38;19.58;;;;;;;1.17;100.00;101578.09;5073919;28;20037;-77
2023/02/11 08:59:38;;;;;;;31.75;19.48;;;;;;;2.28;100.00;101612.78;5072872;28;20070;-77
2023/02/11 09:02:04;;;;;;;30.42;18.73;;;;;;;1.84;100.00;101547.81;5073769;28;20024;-76
2023/02/11 09:04:30;;;;;;;27.00;18.17;;;;;;;1.16;100.00;101578.06;5072039;28;20033;-77
2023/02/11 09:06:56;;;;;;;21.48;15.23;;;;;;;1.59;100.00;101616.31;5071846;28;20067;-77
2023/02/11 09:09:21;;;;;;;29.02;17.77;;;;;;;2.32;100.00;101612.06;5072158;28;20028;-75
2023/02/11 09:11:47;;;;;;;26.15;15.93;;;;;;;2.34;100.00;101517.63;5072043;28;20031;-76
2023/02/11 09:14:20;;;;;;;28.30;18.35;;;;;;;2.30;100.00;101603.63;5071992;28;20090;-77
2023/02/11 09:16:46;;;;;;;25.63;16.52;;;;;;;2.52;100.00;101553.31;5072960;28;20050;-76
2023/02/11 09:19:11;;;;;;;25.50;15.57;;;;;;;2.16;100.00;101537.16;5073497;28;20037;-76
2023/02/11 09:21:37;;;;;;;23.95;15.25;;;;;;;1.94;100.00;101605.00;5071901;28;20033;-77
2023/02/11 09:24:03;;;;;;;30.23;18.60;;;;;;;2.85;100.00;101593.63;5072757;28;20090;-78
2023/02/11 09:26:30;;;;;;;41.33;25.20;;;;;;;3.08;100.00;101601.00;5072475;28;20127;-75
2023/02/11 09:28:56;;;;;;;29.98;18.80;;;;;;;3.05;100.00;101495.41;5071138;28;20052;-77
2023/02/11 09:31:24;;;;;;;23.98;15.50;;;;;;;3.08;100.00;101583.44;5073437;28;20471;-76
2023/02/11 09:33:53;;;;;;;26.67;17.85;;;;;;;3.41;100.00;101586.88;5073575;28;20036;-77
2023/02/11 09:36:24;;;;;;;20.38;12.77;;;;;;;3.05;100.00;101610.13;5071542;28;20032;-75
2023/02/11 09:38:50;;;;;;;17.57;11.80;;;;;;;4.11;100.00;101594.53;5072107;28;20423;-77
2023/02/11 09:41:26;;;;;;;19.45;11.48;;;;;;;4.43;100.00;101622.13;5073286;28;20024;-76
2023/02/11 09:44:01;;;;;;;23.80;14.65;;;;;;;3.68;100.00;101633.66;5071724;28;20033;-76
2023/02/11 09:46:31;;;;;;;20.33;12.98;;;;;;;4.09;100.00;101565.13;5071352;28;20486;-76
2023/02/11 09:48:58;;;;;;;20.02;12.20;;;;;;;4.03;100.00;101632.91;5071296;28;20517;-77
2023/02/11 09:51:23;;;;;;;22.33;13.98;;;;;;;4.52;100.00;101629.88;5071884;28;20032;-77
2023/02/11 09:53:55;;;;;;;17.45;11.63;;;;;;;4.36;100.00;101548.13;5072410;28;20027;-76
2023/02/11 09:56:21;;;;;;;36.42;19.13;;;;;;;4.22;100.00;101640.94;5073057;28;20046;-75
2023/02/11 09:58:46;;;;;;;31.58;17.05;;;;;;;4.03;100.00;101549.88;5072487;28;20049;-76
2023/02/11 10:01:49;;;;;;;30.77;17.40;;;;;;;4.99;100.00;101626.78;5071208;28;20051;-76
2023/02/11 10:04:39;;;;;;;19.45;12.05;;;;;;;4.90;100.00;101629.94;5072406;28;20024;-76
2023/02/11 10:07:20;;;;;;;20.73;14.18;;;;;;;4.74;100.00;101622.84;5071244;28;20090;-76
2023/02/11 10:09:56;;;;;;;20.27;14.55;;;;;;;5.11;100.00;101630.38;5071075;28;20028;-76
2023/02/11 10:12:45;;;;;;;23.92;14.98;;;;;;;4.67;100.00;101617.66;5072517;28;20032;-75
2023/02/11 10:15:23;;;;;;;21.38;13.65;;;;;;;5.01;100.00;101617.56;5072490;28;20090;-76
2023/02/11 10:17:51;;;;;;;20.40;13.13;;;;;;;5.10;100.00;101633.72;5072684;28;20016;-76
2023/02/11 10:20:17;;;;;;;30.55;18.17;;;;;;;5.69;100.00;101627.31;5071427;28;20036;-76
2023/02/11 10:22:54;;;;;;;22.25;14.07;;;;;;;5.58;100.00;101623.78;5072144;28;20028;-76
2023/02/11 10:25:23;;;;;;;26.25;13.63;;;;;;;4.34;100.00;101549.75;5070709;28;20056;-75
2023/02/11 10:27:50;;;;;;;21.52;13.48;;;;;;;5.06;100.00;101637.00;5071934;28;20051;-76
2023/02/11 10:30:27;;;;;;;17.17;11.63;;;;;;;5.16;100.00;101618.75;5071985;28;20529;-76
2023/02/11 10:32:59;;;;;;;18.52;13.38;;;;;;;5.82;100.00;101626.72;5072024;28;20028;-74
2023/02/11 10:35:26;;;;;;;19.10;13.85;;;;;;;5.20;100.00;101481.00;5070982;28;20193;-74
2023/02/11 10:37:53;;;;;;;17.88;11.98;;;;;;;4.99;100.00;101639.38;5071701;28;20033;-75
2023/02/11 10:40:27;;;;;;;28.30;19.30;;;;;;;5.66;100.00;101631.47;5069895;28;20029;-77
2023/02/11 10:42:55;;;;;;;27.73;19.73;;;;;;;5.18;100.00;101626.31;5071692;28;20032;-76
2023/02/11 10:45:27;;;;;;;18.08;13.20;;;;;;;5.88;100.00;101615.94;5070346;28;20028;-76
2023/02/11 10:47:54;;;;;;;16.58;11.20;;;;;;;5.62;100.00;101514.53;5072042;28;20566;-76
2023/02/11 10:50:34;;;;;;;19.27;12.90;;;;;;;5.08;99.56;101602.59;5070307;28;20039;-76
2023/02/11 10:53:14;;;;;;;20.30;13.75;;;;;;;6.50;98.77;101612.72;5071897;28;20032;-76
2023/02/11 10:55:49;;;;;;;19.42;13.25;;;;;;;5.70;95.38;101472.63;5070661;28;20052;-76
2023/02/11 10:58:24;;;;;;;15.65;10.10;;;;;;;6.69;93.06;101607.13;5070276;28;20106;-76
2023/02/11 11:00:54;;;;;;;20.85;13.73;;;;;;;6.25;90.74;101612.34;5071128;28;20057;-76
2023/02/11 11:03:23;;;;;;;24.67;19.33;;;;;;;5.43;92.51;101472.16;5070531;28;20032;-76
2023/02/11 11:05:49;;;;;;;27.58;22.15;;;;;;;6.83;91.54;101612.38;5070806;28;20028;-74
2023/02/11 11:08:15;;;;;;;12.55;9.35;;;;;;;6.10;89.98;101586.00;5070612;28;20036;-76
2023/02/11 11:10:45;;;;;;;25.85;16.17;;;;;;;5.75;89.24;101521.47;5069886;28;20071;-76
2023/02/11 11:13:49;;;;;;;28.48;17.65;;;;;;;5.88;86.94;101621.81;5070589;28;20029;-76
2023/02/11 11:16:19;;;;;;;14.55;10.82;;;;;;;6.69;85.96;101563.31;5060499;28;20102;-76
2023/02/11 11:18:47;;;;;;;21.55;14.73;;;;;;;7.03;84.54;101594.09;5071436;28;20476;-76